Time;durP1;ratioP1;P1;durP2;ratioP2;P2;SDS_P1;SDS_P2;PMS_P1;PMS_P2;Temp;Humidity;BMP_temperature;BMP_pressure;BME280_temperature;BME280_humidity;BME280_pressure;Samples;Min_cycle;Max_cycle;Signal;HPM_P1;HPM_P2
2022/01/27 00:02:36;;;;;;;41.55;14.45;;;;;;;;;;5056416;28;20067;-71
2022/01/27 00:05:14;;;;;;;39.58;15.18;;;;;;;;;;5056382;28;20028;-70
2022/01/27 00:07:43;;;;;;;36.08;14.15;;;;;;;;;;5056426;28;20040;-70
2022/01/27 00:12:44;;;;;;;36.17;13.50;;;;;;;;;;5056841;28;20064;-72
2022/01/27 00:15:14;;;;;;;32.55;12.88;;;;;;;;;;5056182;28;20021;-71
2022/01/27 00:17:55;;;;;;;21.17;8.65;;;;;;;;;;5038495;28;20064;-70
2022/01/27 00:20:23;;;;;;;24.23;8.95;;;;;;;;;;5056003;28;20021;-72
2022/01/27 00:22:50;;;;;;;31.40;9.82;;;;;;;;;;5056034;28;20348;-72
2022/01/27 00:25:18;;;;;;;33.47;12.00;;;;;;;;;;5056118;28;20049;-71
2022/01/27 00:27:45;;;;;;;48.25;18.30;;;;;;;;;;5038252;28;20021;-71
2022/01/27 00:30:16;;;;;;;46.70;17.88;;;;;;;;;;5055824;28;20430;-72
2022/01/27 00:32:43;;;;;;;55.53;20.73;;;;;;;;;;5055956;28;20021;-71
2022/01/27 00:35:11;;;;;;;69.10;25.05;;;;;;;;;;5038205;28;20108;-71
2022/01/27 00:37:38;;;;;;;64.55;24.80;;;;;;;;;;5055819;28;20017;-71
2022/01/27 00:40:08;;;;;;;81.78;25.92;;;;;;;;;;5055898;28;20025;-71
2022/01/27 00:42:36;;;;;;;87.05;28.90;;;;;;;;;;5055963;28;20028;-71
2022/01/27 00:45:04;;;;;;;114.03;30.42;;;;;;;;;;5055788;28;20029;-71
2022/01/27 00:47:35;;;;;;;116.45;36.42;;;;;;;;;;5037972;28;20029;-72
2022/01/27 00:50:03;;;;;;;169.52;57.58;;;;;;;;;;5055522;28;20052;-71
2022/01/27 00:52:39;;;;;;;178.90;82.90;;;;;;;;;;5055556;28;20021;-71
2022/01/27 00:55:09;;;;;;;311.58;128.15;;;;;;;;;;5055649;28;20075;-71
2022/01/27 01:00:17;;;;;;;56.33;22.15;;;;;;;;;;5055676;28;20307;-71
2022/01/27 01:05:33;;;;;;;128.45;45.95;;;;;;;;;;5059630;28;20371;-71
2022/01/27 01:16:11;;;;;;;177.32;64.32;;;;;;;;;;5059201;28;20040;-70
2022/01/27 01:35:07;;;;;;;89.97;31.98;;;;;;;;;;4997848;28;20029;-67
2022/01/27 01:37:39;;;;;;;85.45;32.05;;;;;;;;;;4997740;28;20026;-69
2022/01/27 01:40:12;;;;;;;100.72;36.55;;;;;;;;;;4997890;28;20069;-75
2022/01/27 01:42:40;;;;;;;98.70;34.92;;;;;;;;;;4997736;28;20066;-79
2022/01/27 01:45:10;;;;;;;106.43;34.22;;;;;;;;;;4981502;28;20033;-74
2022/01/27 01:47:38;;;;;;;104.18;34.05;;;;;;;;;;4997894;28;20050;-74
2022/01/27 01:50:06;;;;;;;119.93;37.33;;;;;;;;;;4997643;28;20045;-73
2022/01/27 01:52:34;;;;;;;98.97;39.50;;;;;;;;;;4997634;28;20038;-73
2022/01/27 01:55:02;;;;;;;159.98;62.08;;;;;;;;;;4997591;28;20033;-74
2022/01/27 01:57:30;;;;;;;204.52;80.47;;;;;;;;;;5000232;28;20321;-73
2022/01/27 01:59:58;;;;;;;215.93;123.80;;;;;;;;;;5004475;28;20034;-72
2022/01/27 02:02:26;;;;;;;180.13;96.43;;;;;;;;;;5013425;28;20037;-75
2022/01/27 02:04:55;;;;;;;172.23;61.83;;;;;;;;;;5055779;28;20060;-75
2022/01/27 02:07:39;;;;;;;130.20;48.30;;;;;;;;;;5061881;28;20341;-70
2022/01/27 02:18:24;;;;;;;91.38;34.97;;;;;;;;;;4977500;28;20034;-73
2022/01/27 02:20:51;;;;;;;85.03;32.30;;;;;;;;;;4977346;28;20038;-74
2022/01/27 02:23:19;;;;;;;94.25;34.00;;;;;;;;;;4977474;28;20035;-74
2022/01/27 02:25:46;;;;;;;99.90;36.72;;;;;;;;;;4977138;28;20042;-73
2022/01/27 02:28:13;;;;;;;107.88;40.40;;;;;;;;;;4977195;28;20102;-72
2022/01/27 02:30:40;;;;;;;117.55;41.88;;;;;;;;;;4977256;28;20033;-73
2022/01/27 02:33:08;;;;;;;174.70;62.95;;;;;;;;;;4977372;28;20089;-72
2022/01/27 02:35:35;;;;;;;169.07;62.45;;;;;;;;;;4977166;28;20027;-73
2022/01/27 02:38:05;;;;;;;215.55;72.97;;;;;;;;;;4977375;28;20035;-72
2022/01/27 02:40:38;;;;;;;216.10;76.05;;;;;;;;;;4977191;28;20081;-72
2022/01/27 02:43:06;;;;;;;235.20;83.18;;;;;;;;;;4977161;28;20027;-71
2022/01/27 02:46:00;;;;;;;221.52;84.10;;;;;;;;;;4981319;28;20037;-73
2022/01/27 02:48:27;;;;;;;223.27;80.75;;;;;;;;;;4996260;28;20030;-71
2022/01/27 02:50:55;;;;;;;220.20;80.95;;;;;;;;;;5018762;28;20112;-75
2022/01/27 02:53:23;;;;;;;314.55;142.55;;;;;;;;;;5056518;28;20349;-77
2022/01/27 02:55:51;;;;;;;340.45;131.80;;;;;;;;;;5056468;28;20036;-73
2022/01/27 02:58:18;;;;;;;278.25;96.97;;;;;;;;;;5057526;28;20045;-77
2022/01/27 03:00:46;;;;;;;286.92;104.82;;;;;;;;;;5057695;28;20036;-72
2022/01/27 03:03:14;;;;;;;362.83;129.93;;;;;;;;;;5048452;28;20022;-74
2022/01/27 03:05:42;;;;;;;438.40;156.35;;;;;;;;;;5037438;28;20469;-71
2022/01/27 03:08:10;;;;;;;386.95;145.77;;;;;;;;;;5036964;28;20330;-73
2022/01/27 03:10:45;;;;;;;242.60;82.68;;;;;;;;;;5035959;28;20437;-76
2022/01/27 03:13:12;;;;;;;217.15;79.85;;;;;;;;;;5036724;28;20033;-71
2022/01/27 03:15:40;;;;;;;192.32;66.55;;;;;;;;;;5037204;28;20338;-69
2022/01/27 03:18:07;;;;;;;180.35;62.60;;;;;;;;;;5036968;28;20026;-71
2022/01/27 03:20:38;;;;;;;191.35;65.57;;;;;;;;;;5037040;28;20045;-71
2022/01/27 03:23:07;;;;;;;212.10;78.00;;;;;;;;;;5036811;28;20017;-69
2022/01/27 03:25:34;;;;;;;274.05;106.05;;;;;;;;;;5035543;28;20045;-74
2022/01/27 03:28:02;;;;;;;299.95;121.80;;;;;;;;;;5036773;28;20022;-71
2022/01/27 03:30:30;;;;;;;230.68;95.25;;;;;;;;;;5055818;28;20072;-81
2022/01/27 03:32:57;;;;;;;224.43;93.22;;;;;;;;;;5056627;28;20067;-77
2022/01/27 03:35:25;;;;;;;215.38;88.75;;;;;;;;;;5056593;28;20025;-80
2022/01/27 03:37:53;;;;;;;226.55;94.93;;;;;;;;;;5038843;28;20078;-75
2022/01/27 03:40:20;;;;;;;271.92;108.13;;;;;;;;;;5068774;28;20025;-81
2022/01/27 03:43:02;;;;;;;278.42;110.45;;;;;;;;;;5058739;28;20107;-79
2022/01/27 03:45:30;;;;;;;329.27;130.82;;;;;;;;;;5076181;28;20020;-80
2022/01/27 03:47:58;;;;;;;308.83;118.75;;;;;;;;;;5056809;28;20057;-76
2022/01/27 03:50:25;;;;;;;248.98;94.50;;;;;;;;;;5065112;28;20027;-79
2022/01/27 03:52:53;;;;;;;158.55;58.70;;;;;;;;;;5058385;28;20021;-77
2022/01/27 03:55:21;;;;;;;132.82;52.30;;;;;;;;;;5046709;28;20307;-75
2022/01/27 03:57:48;;;;;;;140.68;53.75;;;;;;;;;;5055743;28;20025;-79
2022/01/27 04:00:16;;;;;;;125.95;54.53;;;;;;;;;;5055594;28;20079;-76
2022/01/27 04:02:56;;;;;;;93.60;38.50;;;;;;;;;;5056138;28;20033;-73
2022/01/27 04:05:24;;;;;;;104.38;43.40;;;;;;;;;;5038204;28;20028;-80
2022/01/27 04:07:56;;;;;;;127.82;45.83;;;;;;;;;;5038213;28;20425;-75
2022/01/27 04:10:24;;;;;;;82.28;37.03;;;;;;;;;;5055498;28;20418;-77
2022/01/27 04:12:51;;;;;;;74.88;29.67;;;;;;;;;;5055680;28;20331;-76
2022/01/27 04:15:19;;;;;;;44.22;18.77;;;;;;;;;;5062862;28;20402;-80
2022/01/27 04:17:47;;;;;;;48.53;22.00;;;;;;;;;;5074189;28;20021;-79
2022/01/27 04:20:21;;;;;;;62.55;26.35;;;;;;;;;;5075076;28;20421;-78
2022/01/27 04:22:49;;;;;;;54.65;26.75;;;;;;;;;;5075027;28;20448;-77
2022/01/27 04:25:17;;;;;;;41.65;19.70;;;;;;;;;;5073010;28;20029;-80
2022/01/27 04:27:52;;;;;;;47.80;20.00;;;;;;;;;;5066219;28;20109;-82
2022/01/27 04:30:23;;;;;;;36.10;17.27;;;;;;;;;;5061704;28;20042;-77
2022/01/27 04:32:58;;;;;;;36.10;16.77;;;;;;;;;;5063039;28;20024;-78
2022/01/27 04:35:27;;;;;;;35.28;16.60;;;;;;;;;;5063366;28;20021;-74
2022/01/27 04:49:02;;;;;;;41.72;18.27;;;;;;;;;;5002424;28;20030;-69
2022/01/27 04:51:30;;;;;;;43.55;17.92;;;;;;;;;;5004040;28;20072;-69
2022/01/27 04:56:27;;;;;;;45.20;18.48;;;;;;;;;;5002140;28;20029;-69
2022/01/27 04:58:59;;;;;;;58.08;23.13;;;;;;;;;;5002507;28;20018;-69
2022/01/27 05:01:39;;;;;;;61.80;21.10;;;;;;;;;;4993835;28;20039;-70
2022/01/27 05:04:14;;;;;;;57.45;27.00;;;;;;;;;;4993512;28;20026;-68
2022/01/27 05:06:42;;;;;;;47.45;20.17;;;;;;;;;;4993552;28;20073;-68
2022/01/27 05:09:10;;;;;;;58.67;20.60;;;;;;;;;;4993758;28;20037;-69
2022/01/27 05:12:00;;;;;;;48.83;20.75;;;;;;;;;;4993480;28;20034;-71
2022/01/27 05:14:27;;;;;;;41.90;15.43;;;;;;;;;;4976919;28;20062;-70
2022/01/27 05:16:55;;;;;;;42.35;14.65;;;;;;;;;;4993348;28;20022;-70
2022/01/27 05:19:22;;;;;;;26.67;11.40;;;;;;;;;;4996019;28;20317;-71
2022/01/27 05:21:50;;;;;;;55.88;16.02;;;;;;;;;;5037138;28;20108;-70
2022/01/27 05:24:19;;;;;;;35.30;13.40;;;;;;;;;;5054610;28;20044;-70
2022/01/27 05:26:47;;;;;;;29.08;13.98;;;;;;;;;;5066010;28;20024;-70
2022/01/27 05:29:13;;;;;;;32.05;13.32;;;;;;;;;;5080526;28;20040;-69
2022/01/27 05:31:43;;;;;;;55.85;19.58;;;;;;;;;;5084495;28;20073;-69
2022/01/27 05:34:13;;;;;;;92.95;42.65;;;;;;;;;;5085328;28;20012;-69
2022/01/27 05:36:41;;;;;;;52.47;26.83;;;;;;;;;;5069432;28;20032;-71
2022/01/27 05:39:08;;;;;;;24.17;9.35;;;;;;;;;;5095107;28;20031;-71
2022/01/27 05:41:36;;;;;;;30.63;10.57;;;;;;;;;;5094896;28;20029;-70
2022/01/27 05:44:04;;;;;;;34.42;11.15;;;;;;;;;;5094862;28;20050;-70
2022/01/27 05:46:31;;;;;;;30.30;10.82;;;;;;;;;;5094708;28;20059;-70
2022/01/27 05:48:58;;;;;;;32.55;11.45;;;;;;;;;;5086664;28;20335;-70
2022/01/27 05:51:26;;;;;;;41.80;13.73;;;;;;;;;;5078135;28;20082;-71
2022/01/27 05:53:54;;;;;;;36.22;12.13;;;;;;;;;;5078055;28;20095;-70
2022/01/27 05:56:21;;;;;;;27.35;10.27;;;;;;;;;;5078200;28;20070;-70
2022/01/27 05:58:49;;;;;;;32.22;12.77;;;;;;;;;;5077782;28;20025;-70
2022/01/27 06:01:16;;;;;;;49.00;18.80;;;;;;;;;;5060284;28;20082;-71
2022/01/27 06:03:44;;;;;;;83.30;36.58;;;;;;;;;;5077896;28;20376;-71
2022/01/27 06:06:12;;;;;;;63.72;26.70;;;;;;;;;;5077925;28;20028;-72
2022/01/27 06:08:39;;;;;;;64.15;29.40;;;;;;;;;;5059374;28;20092;-71
2022/01/27 06:11:07;;;;;;;92.20;34.70;;;;;;;;;;5077228;28;20021;-72
2022/01/27 06:13:34;;;;;;;85.30;37.08;;;;;;;;;;5059025;28;20030;-72
2022/01/27 06:16:08;;;;;;;80.95;34.63;;;;;;;;;;5077417;28;20021;-72
2022/01/27 06:18:37;;;;;;;51.10;23.35;;;;;;;;;;5077767;28;20028;-73
2022/01/27 06:21:06;;;;;;;28.48;11.57;;;;;;;;;;5077576;28;20024;-72
2022/01/27 06:23:34;;;;;;;36.22;14.55;;;;;;;;;;5059887;28;20070;-71
2022/01/27 06:26:02;;;;;;;27.35;10.60;;;;;;;;;;5077468;28;20100;-73
2022/01/27 06:28:30;;;;;;;35.15;11.05;;;;;;;;;;5076870;28;20122;-72
2022/01/27 06:30:57;;;;;;;55.78;23.98;;;;;;;;;;5077444;28;20024;-72
2022/01/27 06:33:25;;;;;;;42.65;12.43;;;;;;;;;;5077706;28;20436;-72
2022/01/27 06:35:52;;;;;;;31.65;11.57;;;;;;;;;;5077412;28;20021;-72
2022/01/27 06:38:20;;;;;;;26.25;10.60;;;;;;;;;;5077181;28;20016;-73
2022/01/27 06:40:47;;;;;;;19.40;6.50;;;;;;;;;;5059523;28;20030;-72
2022/01/27 06:43:15;;;;;;;15.00;6.38;;;;;;;;;;5077237;28;20149;-72
2022/01/27 06:45:43;;;;;;;16.42;6.80;;;;;;;;;;5059584;28;20028;-72
2022/01/27 06:48:10;;;;;;;12.07;4.97;;;;;;;;;;5077116;28;20417;-72
2022/01/27 06:50:41;;;;;;;14.20;5.32;;;;;;;;;;5070027;28;20032;-71
2022/01/27 06:53:09;;;;;;;13.85;5.60;;;;;;;;;;5040793;28;20584;-73
2022/01/27 06:55:38;;;;;;;14.32;5.47;;;;;;;;;;5073271;28;20427;-73
2022/01/27 06:58:34;;;;;;;12.93;5.63;;;;;;;;;;5087992;28;20031;-71
2022/01/27 07:01:39;;;;;;;14.18;6.50;;;;;;;;;;4994494;28;20034;-73
2022/01/27 07:04:07;;;;;;;14.13;6.22;;;;;;;;;;4892016;29;20036;-73
2022/01/27 07:06:35;;;;;;;20.02;6.00;;;;;;;;;;4908564;29;20095;-72
2022/01/27 07:09:05;;;;;;;19.40;6.55;;;;;;;;;;4893640;29;20052;-73
2022/01/27 07:11:32;;;;;;;17.75;6.57;;;;;;;;;;4909354;29;20088;-73
2022/01/27 07:14:00;;;;;;;14.23;5.65;;;;;;;;;;4893287;29;20056;-73
2022/01/27 07:16:27;;;;;;;15.38;6.38;;;;;;;;;;4899776;29;20029;-73
2022/01/27 07:18:55;;;;;;;17.65;6.55;;;;;;;;;;4904183;29;20119;-72
2022/01/27 07:21:23;;;;;;;17.88;6.60;;;;;;;;;;4884015;29;20383;-71
2022/01/27 07:23:51;;;;;;;18.98;7.47;;;;;;;;;;4890814;29;20444;-71
2022/01/27 07:26:24;;;;;;;18.38;8.57;;;;;;;;;;4917832;29;20326;-71
2022/01/27 07:28:54;;;;;;;21.15;6.75;;;;;;;;;;4917811;29;20052;-70
2022/01/27 07:31:22;;;;;;;13.88;3.97;;;;;;;;;;4917823;29;20036;-71
2022/01/27 07:33:52;;;;;;;12.00;4.15;;;;;;;;;;4902132;29;20064;-71
2022/01/27 07:36:20;;;;;;;15.88;5.78;;;;;;;;;;4901349;29;20028;-72
2022/01/27 07:38:49;;;;;;;13.25;5.00;;;;;;;;;;4955439;28;20073;-72
2022/01/27 07:41:17;;;;;;;24.08;8.68;;;;;;;;;;4959267;28;20081;-71
2022/01/27 07:43:45;;;;;;;49.05;17.27;;;;;;;;;;4975227;28;20380;-73
2022/01/27 07:46:13;;;;;;;26.38;10.13;;;;;;;;;;4958530;28;20039;-76
2022/01/27 07:48:43;;;;;;;23.50;8.80;;;;;;;;;;4950262;29;20409;-73
2022/01/27 07:51:11;;;;;;;18.10;7.85;;;;;;;;;;4959708;28;20490;-75
2022/01/27 07:53:42;;;;;;;19.85;9.45;;;;;;;;;;4946030;29;20155;-75
2022/01/27 07:56:10;;;;;;;38.30;14.57;;;;;;;;;;4955989;29;20019;-74
2022/01/27 07:58:40;;;;;;;13.27;5.38;;;;;;;;;;4955320;28;20416;-78
2022/01/27 08:01:08;;;;;;;26.17;7.90;;;;;;;;;;4957716;28;20027;-75
2022/01/27 08:03:37;;;;;;;29.67;12.55;;;;;;;;;;4957618;28;20474;-74
2022/01/27 08:06:05;;;;;;;26.23;10.75;;;;;;;;;;4974803;28;20126;-68
2022/01/27 08:08:33;;;;;;;24.65;10.40;;;;;;;;;;4969915;28;20031;-75
2022/01/27 08:11:01;;;;;;;18.73;8.00;;;;;;;;;;4952258;28;20031;-75
2022/01/27 08:13:28;;;;;;;17.25;8.30;;;;;;;;;;4974630;28;20034;-74
2022/01/27 08:15:56;;;;;;;18.95;7.70;;;;;;;;;;4974480;28;20098;-75
2022/01/27 08:18:23;;;;;;;20.55;7.68;;;;;;;;;;4974722;28;20468;-74
2022/01/27 08:20:51;;;;;;;20.77;7.57;;;;;;;;;;4974496;28;20034;-73
2022/01/27 08:23:20;;;;;;;18.88;7.53;;;;;;;;;;4958653;28;20226;-75
2022/01/27 08:25:53;;;;;;;16.40;6.03;;;;;;;;;;4975129;28;20026;-72
2022/01/27 08:28:28;;;;;;;18.77;6.15;;;;;;;;;;4974589;28;20023;-73
2022/01/27 08:30:57;;;;;;;21.08;8.77;;;;;;;;;;4992811;28;20022;-73
2022/01/27 08:33:29;;;;;;;17.92;6.40;;;;;;;;;;4977942;28;20129;-72
2022/01/27 08:35:58;;;;;;;15.60;6.68;;;;;;;;;;4994368;28;20054;-72
2022/01/27 08:38:26;;;;;;;13.85;5.50;;;;;;;;;;4977691;28;20101;-75
2022/01/27 08:40:54;;;;;;;19.67;7.90;;;;;;;;;;4994494;28;20074;-73
2022/01/27 08:43:22;;;;;;;39.17;19.17;;;;;;;;;;4977848;28;20442;-76
2022/01/27 08:45:50;;;;;;;28.17;12.57;;;;;;;;;;4994082;28;20034;-74
2022/01/27 08:48:21;;;;;;;26.65;10.48;;;;;;;;;;4993937;28;20042;-74
2022/01/27 08:50:58;;;;;;;67.82;30.75;;;;;;;;;;4977696;28;20109;-77
2022/01/27 08:53:26;;;;;;;53.72;24.98;;;;;;;;;;4994511;28;20034;-71
2022/01/27 08:55:54;;;;;;;99.90;24.85;;;;;;;;;;4975201;28;20030;-74
2022/01/27 08:58:25;;;;;;;39.33;18.02;;;;;;;;;;4973357;28;20027;-75
2022/01/27 09:00:53;;;;;;;43.65;17.08;;;;;;;;;;4973988;28;20026;-75
2022/01/27 09:03:20;;;;;;;51.22;17.95;;;;;;;;;;4973917;28;20042;-75
2022/01/27 09:05:48;;;;;;;64.45;19.58;;;;;;;;;;4975958;28;20031;-76
2022/01/27 09:08:16;;;;;;;45.60;15.15;;;;;;;;;;4958271;28;20023;-77
2022/01/27 09:10:46;;;;;;;44.88;16.67;;;;;;;;;;4976978;28;20034;-74
2022/01/27 09:13:15;;;;;;;70.00;27.23;;;;;;;;;;4982071;28;20117;-70
2022/01/27 09:15:43;;;;;;;50.53;18.50;;;;;;;;;;4993346;28;20375;-72
2022/01/27 09:18:11;;;;;;;46.53;17.05;;;;;;;;;;4977314;28;20116;-75
2022/01/27 09:20:38;;;;;;;59.03;19.42;;;;;;;;;;4993253;28;20058;-78
2022/01/27 09:23:13;;;;;;;538.95;290.17;;;;;;;;;;4996472;28;20030;-74
2022/01/27 09:25:47;;;;;;;471.02;207.70;;;;;;;;;;4997461;28;20026;-77
2022/01/27 09:28:14;;;;;;;102.43;40.55;;;;;;;;;;4996702;28;20026;-76
2022/01/27 09:30:45;;;;;;;45.47;23.85;;;;;;;;;;4997655;28;20117;-75
2022/01/27 09:33:13;;;;;;;34.42;13.77;;;;;;;;;;4980518;28;20030;-75
2022/01/27 09:35:41;;;;;;;32.00;12.70;;;;;;;;;;4994708;28;20141;-76
2022/01/27 09:38:08;;;;;;;43.92;14.10;;;;;;;;;;4981287;28;20031;-77
2022/01/27 09:40:36;;;;;;;36.45;13.60;;;;;;;;;;4961530;28;20085;-73
2022/01/27 09:43:04;;;;;;;28.75;9.27;;;;;;;;;;4963582;28;20027;-75
2022/01/27 09:45:37;;;;;;;51.28;20.58;;;;;;;;;;4997224;28;20053;-74
2022/01/27 09:48:13;;;;;;;33.33;14.13;;;;;;;;;;4980624;28;20030;-75
2022/01/27 09:53:11;;;;;;;61.92;24.75;;;;;;;;;;4997060;28;20019;-74
2022/01/27 09:55:38;;;;;;;101.25;39.92;;;;;;;;;;4980866;28;20037;-75
2022/01/27 09:58:06;;;;;;;92.60;37.75;;;;;;;;;;4980443;28;20050;-75
2022/01/27 10:00:34;;;;;;;33.08;13.60;;;;;;;;;;4997053;28;20026;-73
2022/01/27 10:03:13;;;;;;;63.67;23.17;;;;;;;;;;5041724;28;20360;-73
2022/01/27 10:05:41;;;;;;;74.47;33.05;;;;;;;;;;5074035;28;20020;-72
2022/01/27 10:08:15;;;;;;;73.97;25.75;;;;;;;;;;5040092;28;20392;-76
2022/01/27 10:10:44;;;;;;;54.15;22.55;;;;;;;;;;5040429;28;20025;-73
2022/01/27 10:13:31;;;;;;;46.67;16.80;;;;;;;;;;5058193;28;20033;-73
2022/01/27 10:15:59;;;;;;;28.92;11.10;;;;;;;;;;5040570;28;20029;-75
2022/01/27 10:18:34;;;;;;;36.13;13.57;;;;;;;;;;5040242;28;20032;-73
2022/01/27 10:21:11;;;;;;;38.75;13.98;;;;;;;;;;5057840;28;20425;-74
2022/01/27 10:23:40;;;;;;;34.40;13.85;;;;;;;;;;5057372;28;20049;-74
2022/01/27 10:26:22;;;;;;;49.25;19.13;;;;;;;;;;5057927;28;20294;-74
2022/01/27 10:29:01;;;;;;;77.00;28.48;;;;;;;;;;5057492;28;20076;-73
2022/01/27 10:31:29;;;;;;;117.25;52.03;;;;;;;;;;5057624;28;20017;-73
2022/01/27 10:34:02;;;;;;;31.23;11.05;;;;;;;;;;5056942;28;20406;-73
2022/01/27 10:36:35;;;;;;;28.25;10.98;;;;;;;;;;5057649;28;20060;-75
2022/01/27 10:39:08;;;;;;;29.50;11.65;;;;;;;;;;5057485;28;20029;-74
2022/01/27 10:41:37;;;;;;;24.05;9.70;;;;;;;;;;5057333;28;20071;-75
2022/01/27 10:44:12;;;;;;;27.15;11.10;;;;;;;;;;5057415;28;20345;-73
2022/01/27 10:46:49;;;;;;;30.35;11.30;;;;;;;;;;5057308;28;20032;-75
2022/01/27 10:49:28;;;;;;;18.60;7.22;;;;;;;;;;5057486;28;20021;-74
2022/01/27 10:51:56;;;;;;;22.90;10.20;;;;;;;;;;5057595;28;20100;-75
2022/01/27 10:54:36;;;;;;;30.02;12.45;;;;;;;;;;5057469;28;20096;-74
2022/01/27 10:57:08;;;;;;;33.75;14.13;;;;;;;;;;5057005;28;20422;-73
2022/01/27 10:59:36;;;;;;;49.78;18.30;;;;;;;;;;5057378;28;20307;-74
2022/01/27 11:02:11;;;;;;;40.67;17.70;;;;;;;;;;5057421;28;20060;-75
2022/01/27 11:04:40;;;;;;;30.02;12.82;;;;;;;;;;5057313;28;20032;-76
2022/01/27 11:07:10;;;;;;;39.83;18.67;;;;;;;;;;5039559;28;20029;-76
2022/01/27 11:09:42;;;;;;;51.88;19.85;;;;;;;;;;5057116;28;20029;-77
2022/01/27 11:12:17;;;;;;;45.50;17.55;;;;;;;;;;5057520;28;20033;-76
2022/01/27 11:14:48;;;;;;;47.72;19.83;;;;;;;;;;5057405;28;20049;-77
2022/01/27 11:17:19;;;;;;;52.30;24.15;;;;;;;;;;5039383;28;20025;-75
2022/01/27 11:27:32;;;;;;;33.42;10.73;;;;;;;;;;5056875;28;20022;-76
2022/01/27 11:30:18;;;;;;;28.20;9.55;;;;;;;;;;5056690;28;20041;-76
2022/01/27 11:33:04;;;;;;;35.58;11.93;;;;;;;;;;5056842;28;20491;-76
2022/01/27 11:35:32;;;;;;;42.50;10.93;;;;;;;;;;5056763;28;20429;-75
2022/01/27 11:38:03;;;;;;;39.22;11.57;;;;;;;;;;5034716;28;20314;-75
2022/01/27 11:40:41;;;;;;;29.35;8.98;;;;;;;;;;5018086;28;20037;-76
2022/01/27 11:43:13;;;;;;;35.05;10.48;;;;;;;;;;5034716;28;20052;-77
2022/01/27 11:45:45;;;;;;;42.13;12.32;;;;;;;;;;5017057;28;20075;-77
2022/01/27 11:48:15;;;;;;;42.47;11.05;;;;;;;;;;5034473;28;20037;-78
2022/01/27 11:50:51;;;;;;;43.95;10.68;;;;;;;;;;5034474;28;20112;-77
2022/01/27 11:53:40;;;;;;;36.17;11.23;;;;;;;;;;5034677;28;20434;-77
2022/01/27 11:56:16;;;;;;;41.35;12.50;;;;;;;;;;5034356;28;20038;-77
2022/01/27 11:58:50;;;;;;;44.47;11.75;;;;;;;;;;5034154;28;20029;-77
2022/01/27 12:01:23;;;;;;;58.83;21.08;;;;;;;;;;5017660;28;20503;-77
2022/01/27 12:04:11;;;;;;;74.32;28.75;;;;;;;;;;5017576;28;20151;-77
2022/01/27 12:07:13;;;;;;;89.13;32.63;;;;;;;;;;5034093;28;20104;-77
2022/01/27 12:09:45;;;;;;;73.93;32.17;;;;;;;;;;4952173;29;20464;-78
2022/01/27 12:12:29;;;;;;;76.05;31.95;;;;;;;;;;4955993;29;20047;-75
2022/01/27 12:15:06;;;;;;;76.28;30.83;;;;;;;;;;4955861;29;20028;-76
2022/01/27 12:17:34;;;;;;;87.60;32.78;;;;;;;;;;4955870;29;20059;-77
2022/01/27 12:20:07;;;;;;;92.40;34.33;;;;;;;;;;4956096;29;20110;-77
2022/01/27 12:22:45;;;;;;;106.63;38.80;;;;;;;;;;4955992;29;20341;-76
2022/01/27 12:25:13;;;;;;;98.15;39.53;;;;;;;;;;4956024;29;20035;-74
2022/01/27 12:27:41;;;;;;;104.18;42.65;;;;;;;;;;4956133;29;20341;-76
2022/01/27 12:30:11;;;;;;;93.03;43.10;;;;;;;;;;4955630;29;20348;-75
2022/01/27 12:32:40;;;;;;;103.80;44.00;;;;;;;;;;4955945;29;20024;-75
2022/01/27 12:35:09;;;;;;;111.53;47.03;;;;;;;;;;4956092;29;20132;-76
2022/01/27 12:37:41;;;;;;;117.72;45.72;;;;;;;;;;4955715;29;20098;-75
2022/01/27 12:40:28;;;;;;;106.78;46.65;;;;;;;;;;4955700;29;20031;-75
2022/01/27 12:43:02;;;;;;;115.78;47.55;;;;;;;;;;4977604;28;20065;-76
2022/01/27 12:45:31;;;;;;;104.75;45.88;;;;;;;;;;5055585;28;20091;-75
2022/01/27 12:48:07;;;;;;;116.18;47.65;;;;;;;;;;5055537;28;20094;-75
2022/01/27 12:50:37;;;;;;;135.45;51.22;;;;;;;;;;5037648;28;20421;-75
2022/01/27 12:53:13;;;;;;;109.68;46.35;;;;;;;;;;5055426;28;20032;-75
2022/01/27 12:55:41;;;;;;;112.28;49.88;;;;;;;;;;5055444;28;20062;-74
2022/01/27 12:58:18;;;;;;;130.30;52.00;;;;;;;;;;5040905;28;20154;-75
2022/01/27 13:00:52;;;;;;;116.70;51.78;;;;;;;;;;5042043;28;20032;-74
2022/01/27 13:03:21;;;;;;;114.55;50.00;;;;;;;;;;5059768;28;20437;-76
2022/01/27 13:05:53;;;;;;;123.35;50.55;;;;;;;;;;5059665;28;20025;-76
2022/01/27 13:08:22;;;;;;;123.22;50.20;;;;;;;;;;5059450;28;20021;-76
2022/01/27 13:10:55;;;;;;;114.18;50.05;;;;;;;;;;5041597;28;20155;-76
2022/01/27 13:13:29;;;;;;;116.82;50.53;;;;;;;;;;5041832;28;20456;-79
2022/01/27 13:15:57;;;;;;;115.05;49.78;;;;;;;;;;5059430;28;20025;-78
2022/01/27 13:18:31;;;;;;;103.43;48.00;;;;;;;;;;5059574;28;20021;-79
2022/01/27 13:21:00;;;;;;;117.70;50.45;;;;;;;;;;5059627;28;20140;-78
2022/01/27 13:23:36;;;;;;;111.13;52.33;;;;;;;;;;5041730;28;20029;-77
2022/01/27 13:26:10;;;;;;;116.28;51.58;;;;;;;;;;5059464;28;20422;-78
2022/01/27 13:28:38;;;;;;;118.75;52.55;;;;;;;;;;5058986;28;20091;-78
2022/01/27 13:31:07;;;;;;;120.47;52.88;;;;;;;;;;5041667;28;20436;-78
2022/01/27 13:33:42;;;;;;;136.38;54.92;;;;;;;;;;5041691;28;20104;-78
2022/01/27 13:36:34;;;;;;;135.95;56.22;;;;;;;;;;5059282;28;20155;-78
2022/01/27 13:41:38;;;;;;;118.07;51.67;;;;;;;;;;4978573;28;20371;-77
2022/01/27 13:44:08;;;;;;;125.93;53.10;;;;;;;;;;4978432;28;20335;-78
2022/01/27 13:46:37;;;;;;;125.75;54.92;;;;;;;;;;4978317;28;20407;-77
2022/01/27 13:49:07;;;;;;;127.88;53.03;;;;;;;;;;4978129;28;20035;-78
2022/01/27 13:51:45;;;;;;;107.82;50.72;;;;;;;;;;4978148;28;20090;-77
2022/01/27 13:54:13;;;;;;;115.05;47.95;;;;;;;;;;4978060;28;20026;-76
2022/01/27 13:56:44;;;;;;;107.45;44.53;;;;;;;;;;4978058;28;20035;-76
2022/01/27 13:59:15;;;;;;;101.57;43.13;;;;;;;;;;4978112;28;20438;-76
2022/01/27 14:01:43;;;;;;;94.63;39.95;;;;;;;;;;4978189;28;20084;-76
2022/01/27 14:04:11;;;;;;;90.72;40.42;;;;;;;;;;4977964;28;20062;-76
2022/01/27 14:06:53;;;;;;;88.70;41.00;;;;;;;;;;4978089;28;20027;-76
2022/01/27 14:09:23;;;;;;;82.75;36.70;;;;;;;;;;4976818;28;20046;-76
2022/01/27 14:12:03;;;;;;;97.38;39.78;;;;;;;;;;4977834;28;20027;-76
2022/01/27 14:14:48;;;;;;;80.25;36.60;;;;;;;;;;4977815;28;20027;-76
2022/01/27 14:17:22;;;;;;;85.35;37.60;;;;;;;;;;5058129;28;20029;-77
2022/01/27 14:19:51;;;;;;;82.88;38.70;;;;;;;;;;5058389;28;20036;-77
2022/01/27 14:22:20;;;;;;;95.85;40.40;;;;;;;;;;5058469;28;20338;-77
2022/01/27 14:25:03;;;;;;;101.20;43.25;;;;;;;;;;5040686;28;20445;-77
2022/01/27 14:27:40;;;;;;;104.55;44.58;;;;;;;;;;5058320;28;20052;-76
2022/01/27 14:30:08;;;;;;;99.85;44.00;;;;;;;;;;5040318;28;20044;-76
2022/01/27 14:32:35;;;;;;;100.93;44.83;;;;;;;;;;5058287;28;20044;-77
2022/01/27 14:35:06;;;;;;;97.00;43.10;;;;;;;;;;5040382;28;20025;-76
2022/01/27 14:37:35;;;;;;;104.43;43.78;;;;;;;;;;5058177;28;20018;-76
2022/01/27 14:40:04;;;;;;;101.93;43.65;;;;;;;;;;5040363;28;20426;-77
2022/01/27 14:42:33;;;;;;;102.15;44.10;;;;;;;;;;5057978;28;20073;-76
2022/01/27 14:45:01;;;;;;;107.70;45.72;;;;;;;;;;5058326;28;20059;-78
2022/01/27 14:47:29;;;;;;;107.22;45.67;;;;;;;;;;5040106;28;20025;-78
2022/01/27 14:49:56;;;;;;;89.57;40.95;;;;;;;;;;5039905;28;20098;-76
2022/01/27 14:52:28;;;;;;;85.47;37.75;;;;;;;;;;5057814;28;20417;-78
2022/01/27 14:54:56;;;;;;;91.05;38.55;;;;;;;;;;5040500;28;20035;-78
2022/01/27 14:57:23;;;;;;;89.68;38.17;;;;;;;;;;5057788;28;20024;-78
2022/01/27 14:59:51;;;;;;;85.32;36.13;;;;;;;;;;5057645;28;20329;-77
2022/01/27 15:02:21;;;;;;;97.47;37.88;;;;;;;;;;5039762;28;20029;-78
2022/01/27 15:04:49;;;;;;;88.57;38.45;;;;;;;;;;5057421;28;20036;-77
2022/01/27 15:07:17;;;;;;;85.55;35.35;;;;;;;;;;5039680;28;20025;-77
2022/01/27 15:09:45;;;;;;;81.38;34.85;;;;;;;;;;5057207;28;20024;-78
2022/01/27 15:12:15;;;;;;;83.30;34.92;;;;;;;;;;5057454;28;20029;-77
2022/01/27 15:20:15;;;;;;;80.90;34.05;;;;;;;;;;5058016;28;20344;-78
2022/01/27 15:22:43;;;;;;;75.10;32.13;;;;;;;;;;5039784;28;20036;-77
2022/01/27 15:25:13;;;;;;;78.78;31.65;;;;;;;;;;5057307;28;20025;-77
2022/01/27 15:27:40;;;;;;;70.40;31.23;;;;;;;;;;5039401;28;20032;-77
2022/01/27 15:30:10;;;;;;;447.70;154.38;;;;;;;;;;5057055;28;20052;-76
2022/01/27 15:32:37;;;;;;;337.80;140.15;;;;;;;;;;5057214;28;20075;-77
2022/01/27 15:35:11;;;;;;;290.50;120.00;;;;;;;;;;5057112;28;20021;-78
2022/01/27 15:37:45;;;;;;;308.92;115.28;;;;;;;;;;5056960;28;20028;-77
2022/01/27 15:40:15;;;;;;;387.83;143.40;;;;;;;;;;5056914;28;20051;-79
2022/01/27 15:42:51;;;;;;;248.27;98.53;;;;;;;;;;5039273;28;20116;-77
2022/01/27 15:45:22;;;;;;;242.10;99.38;;;;;;;;;;5056703;28;20024;-77
2022/01/27 15:47:50;;;;;;;263.50;99.25;;;;;;;;;;5056720;28;20017;-77